sensor_id;sensor_type;location;lat;lon;timestamp;pressure;altitude;pressure_sealevel;temperature;humidity
9853;BME280;4965;43.238;27.864;2022-07-15T00:01:03;100160.53;;;20.81;100.00
9853;BME280;4965;43.238;27.864;2022-07-15T00:03:29;100155.34;;;20.73;100.00
9853;BME280;4965;43.238;27.864;2022-07-15T00:05:57;100153.81;;;20.64;100.00
9853;BME280;4965;43.238;27.864;2022-07-15T00:08:23;100155.38;;;20.52;100.00
9853;BME280;4965;43.238;27.864;2022-07-15T00:10:52;100156.22;;;20.53;100.00
9853;BME280;4965;43.238;27.864;2022-07-15T00:13:20;100151.47;;;20.55;100.00
9853;BME280;4965;43.238;27.864;2022-07-15T00:15:49;100154.00;;;20.35;100.00
9853;BME280;4965;43.238;27.864;2022-07-15T00:18:16;100148.16;;;20.31;100.00
9853;BME280;4965;43.238;27.864;2022-07-15T00:20:43;100155.13;;;20.26;100.00
9853;BME280;4965;43.238;27.864;2022-07-15T00:23:10;100147.97;;;20.12;100.00
9853;BME280;4965;43.238;27.864;2022-07-15T00:25:37;100146.75;;;20.35;100.00
9853;BME280;4965;43.238;27.864;2022-07-15T00:28:06;100145.13;;;20.34;100.00
9853;BME280;4965;43.238;27.864;2022-07-15T00:30:36;100146.13;;;20.33;100.00
9853;BME280;4965;43.238;27.864;2022-07-15T00:33:04;100143.84;;;20.30;100.00
9853;BME280;4965;43.238;27.864;2022-07-15T00:35:33;100135.78;;;20.30;100.00
9853;BME280;4965;43.238;27.864;2022-07-15T00:38:00;100139.09;;;20.32;100.00
9853;BME280;4965;43.238;27.864;2022-07-15T00:40:27;100137.91;;;20.35;100.00
9853;BME280;4965;43.238;27.864;2022-07-15T00:42:54;100146.44;;;20.45;100.00
9853;BME280;4965;43.238;27.864;2022-07-15T00:45:23;100140.19;;;20.38;100.00
9853;BME280;4965;43.238;27.864;2022-07-15T00:47:52;100138.91;;;20.34;100.00
9853;BME280;4965;43.238;27.864;2022-07-15T00:50:21;100137.16;;;20.48;100.00
9853;BME280;4965;43.238;27.864;2022-07-15T00:52:55;100133.28;;;20.50;100.00
9853;BME280;4965;43.238;27.864;2022-07-15T00:55:24;100122.41;;;20.37;100.00
9853;BME280;4965;43.238;27.864;2022-07-15T00:57:55;100128.63;;;20.37;100.00
9853;BME280;4965;43.238;27.864;2022-07-15T01:00:23;100130.28;;;20.38;100.00
9853;BME280;4965;43.238;27.864;2022-07-15T01:02:52;100121.91;;;20.27;100.00
9853;BME280;4965;43.238;27.864;2022-07-15T01:05:21;100118.06;;;20.15;100.00
9853;BME280;4965;43.238;27.864;2022-07-15T01:07:49;100116.53;;;20.06;100.00
9853;BME280;4965;43.238;27.864;2022-07-15T01:10:16;100112.25;;;20.11;100.00
9853;BME280;4965;43.238;27.864;2022-07-15T01:12:46;100120.09;;;20.13;100.00
9853;BME280;4965;43.238;27.864;2022-07-15T01:15:13;100105.34;;;20.02;100.00
9853;BME280;4965;43.238;27.864;2022-07-15T01:17:40;100113.75;;;19.92;100.00
9853;BME280;4965;43.238;27.864;2022-07-15T01:20:10;100112.31;;;19.75;100.00
9853;BME280;4965;43.238;27.864;2022-07-15T01:22:39;100112.63;;;19.66;100.00
9853;BME280;4965;43.238;27.864;2022-07-15T01:25:06;100107.59;;;19.77;100.00
9853;BME280;4965;43.238;27.864;2022-07-15T01:27:33;100108.88;;;19.81;100.00
9853;BME280;4965;43.238;27.864;2022-07-15T01:30:00;100107.09;;;19.88;100.00
9853;BME280;4965;43.238;27.864;2022-07-15T01:32:27;100109.63;;;19.96;100.00
9853;BME280;4965;43.238;27.864;2022-07-15T01:34:54;100100.47;;;20.12;100.00
9853;BME280;4965;43.238;27.864;2022-07-15T01:37:21;100093.16;;;20.00;100.00
9853;BME280;4965;43.238;27.864;2022-07-15T01:39:50;100105.81;;;19.84;100.00
9853;BME280;4965;43.238;27.864;2022-07-15T01:42:17;100101.91;;;19.87;100.00
9853;BME280;4965;43.238;27.864;2022-07-15T01:44:44;100105.41;;;20.09;100.00
9853;BME280;4965;43.238;27.864;2022-07-15T01:47:11;100106.25;;;20.09;100.00
9853;BME280;4965;43.238;27.864;2022-07-15T01:49:38;100092.38;;;20.06;100.00
9853;BME280;4965;43.238;27.864;2022-07-15T01:52:04;100093.03;;;20.08;100.00
9853;BME280;4965;43.238;27.864;2022-07-15T01:54:35;100097.22;;;20.17;100.00
9853;BME280;4965;43.238;27.864;2022-07-15T01:57:03;100093.25;;;20.13;100.00
9853;BME280;4965;43.238;27.864;2022-07-15T01:59:30;100087.47;;;20.09;100.00
9853;BME280;4965;43.238;27.864;2022-07-15T02:01:57;100091.25;;;20.15;100.00
9853;BME280;4965;43.238;27.864;2022-07-15T02:04:24;100094.94;;;20.14;100.00
9853;BME280;4965;43.238;27.864;2022-07-15T02:06:51;100092.94;;;20.22;100.00
9853;BME280;4965;43.238;27.864;2022-07-15T02:09:18;100094.78;;;20.22;100.00
9853;BME280;4965;43.238;27.864;2022-07-15T02:11:45;100095.50;;;20.09;100.00
9853;BME280;4965;43.238;27.864;2022-07-15T02:14:14;100093.47;;;19.90;100.00
9853;BME280;4965;43.238;27.864;2022-07-15T02:16:41;100098.34;;;19.80;100.00
9853;BME280;4965;43.238;27.864;2022-07-15T02:19:08;100095.41;;;19.75;100.00
9853;BME280;4965;43.238;27.864;2022-07-15T02:21:35;100102.09;;;19.85;100.00
9853;BME280;4965;43.238;27.864;2022-07-15T02:24:03;100103.25;;;19.76;100.00
9853;BME280;4965;43.238;27.864;2022-07-15T02:26:30;100103.44;;;19.75;100.00
9853;BME280;4965;43.238;27.864;2022-07-15T02:28:56;100108.81;;;19.75;100.00
9853;BME280;4965;43.238;27.864;2022-07-15T02:31:25;100098.66;;;19.70;100.00
9853;BME280;4965;43.238;27.864;2022-07-15T02:33:52;100103.00;;;19.92;100.00
9853;BME280;4965;43.238;27.864;2022-07-15T02:36:19;100091.91;;;19.95;100.00
9853;BME280;4965;43.238;27.864;2022-07-15T02:38:46;100099.06;;;19.88;100.00
9853;BME280;4965;43.238;27.864;2022-07-15T02:41:13;100102.09;;;19.85;100.00
9853;BME280;4965;43.238;27.864;2022-07-15T02:43:40;100096.03;;;19.98;100.00
9853;BME280;4965;43.238;27.864;2022-07-15T02:46:07;100092.78;;;19.81;100.00
9853;BME280;4965;43.238;27.864;2022-07-15T02:48:37;100098.22;;;19.88;100.00
9853;BME280;4965;43.238;27.864;2022-07-15T02:51:05;100098.28;;;19.94;100.00
9853;BME280;4965;43.238;27.864;2022-07-15T02:53:32;100102.50;;;20.04;100.00
9853;BME280;4965;43.238;27.864;2022-07-15T02:55:59;100094.22;;;20.05;100.00
9853;BME280;4965;43.238;27.864;2022-07-15T02:58:27;100093.25;;;20.13;100.00
9853;BME280;4965;43.238;27.864;2022-07-15T03:00:54;100094.53;;;20.17;100.00
9853;BME280;4965;43.238;27.864;2022-07-15T03:03:21;100091.69;;;20.18;100.00
9853;BME280;4965;43.238;27.864;2022-07-15T03:05:49;100097.81;;;20.33;100.00
9853;BME280;4965;43.238;27.864;2022-07-15T03:08:16;100100.16;;;20.43;100.00
9853;BME280;4965;43.238;27.864;2022-07-15T03:10:43;100102.06;;;20.49;100.00
9853;BME280;4965;43.238;27.864;2022-07-15T03:13:10;100091.63;;;20.67;100.00
9853;BME280;4965;43.238;27.864;2022-07-15T03:15:37;100094.53;;;21.07;100.00
9853;BME280;4965;43.238;27.864;2022-07-15T03:18:04;100099.63;;;22.10;100.00
9853;BME280;4965;43.238;27.864;2022-07-15T03:20:30;100098.75;;;23.46;95.38
9853;BME280;4965;43.238;27.864;2022-07-15T03:22:58;100093.03;;;24.73;85.17
9853;BME280;4965;43.238;27.864;2022-07-15T03:25:26;100098.31;;;26.12;76.18
9853;BME280;4965;43.238;27.864;2022-07-15T03:27:53;100091.56;;;27.30;68.99
9853;BME280;4965;43.238;27.864;2022-07-15T03:30:19;100088.16;;;28.25;64.65
9853;BME280;4965;43.238;27.864;2022-07-15T03:32:48;100091.19;;;29.00;60.58
9853;BME280;4965;43.238;27.864;2022-07-15T03:35:14;100096.22;;;28.70;58.16
9853;BME280;4965;43.238;27.864;2022-07-15T03:37:41;100089.59;;;28.66;57.93
9853;BME280;4965;43.238;27.864;2022-07-15T03:40:11;100099.44;;;28.83;58.40
9853;BME280;4965;43.238;27.864;2022-07-15T03:42:38;100098.97;;;29.30;60.25
9853;BME280;4965;43.238;27.864;2022-07-15T03:45:05;100096.69;;;29.97;58.85
9853;BME280;4965;43.238;27.864;2022-07-15T03:47:33;100096.91;;;30.54;56.46
9853;BME280;4965;43.238;27.864;2022-07-15T03:49:59;100104.44;;;30.10;56.93
9853;BME280;4965;43.238;27.864;2022-07-15T03:52:26;100102.06;;;30.19;57.00
9853;BME280;4965;43.238;27.864;2022-07-15T03:54:53;100100.00;;;29.99;56.11
9853;BME280;4965;43.238;27.864;2022-07-15T03:57:21;100099.72;;;30.33;55.70
9853;BME280;4965;43.238;27.864;2022-07-15T03:59:50;100102.19;;;31.18;52.56
9853;BME280;4965;43.238;27.864;2022-07-15T04:02:17;100097.06;;;31.32;51.82
9853;BME280;4965;43.238;27.864;2022-07-15T04:04:45;100109.09;;;31.36;51.87
9853;BME280;4965;43.238;27.864;2022-07-15T04:07:11;100107.31;;;31.67;50.87
9853;BME280;4965;43.238;27.864;2022-07-15T04:09:38;100104.63;;;32.07;48.85
9853;BME280;4965;43.238;27.864;2022-07-15T04:12:06;100106.56;;;32.32;49.84
9853;BME280;4965;43.238;27.864;2022-07-15T04:14:34;100102.75;;;32.28;48.84
9853;BME280;4965;43.238;27.864;2022-07-15T04:17:01;100106.81;;;32.45;50.07
9853;BME280;4965;43.238;27.864;2022-07-15T04:19:28;100107.38;;;32.37;50.63
9853;BME280;4965;43.238;27.864;2022-07-15T04:21:55;100100.22;;;32.72;50.68
9853;BME280;4965;43.238;27.864;2022-07-15T04:24:21;100103.81;;;32.62;51.79
9853;BME280;4965;43.238;27.864;2022-07-15T04:26:48;100109.19;;;33.13;50.40
9853;BME280;4965;43.238;27.864;2022-07-15T04:29:15;100114.66;;;33.72;44.55
9853;BME280;4965;43.238;27.864;2022-07-15T04:31:43;100114.66;;;33.13;45.00
9853;BME280;4965;43.238;27.864;2022-07-15T04:34:10;100116.53;;;33.76;42.91
9853;BME280;4965;43.238;27.864;2022-07-15T04:36:37;100118.06;;;34.65;41.39
9853;BME280;4965;43.238;27.864;2022-07-15T04:39:04;100115.38;;;34.55;40.79
9853;BME280;4965;43.238;27.864;2022-07-15T04:41:31;100120.81;;;34.65;40.30
9853;BME280;4965;43.238;27.864;2022-07-15T04:43:58;100115.28;;;33.53;40.97
9853;BME280;4965;43.238;27.864;2022-07-15T04:46:25;100120.47;;;32.86;42.35
9853;BME280;4965;43.238;27.864;2022-07-15T04:48:53;100115.78;;;33.01;42.26
9853;BME280;4965;43.238;27.864;2022-07-15T04:51:37;100116.50;;;33.86;41.99
9853;BME280;4965;43.238;27.864;2022-07-15T04:54:04;100121.53;;;35.84;39.04
9853;BME280;4965;43.238;27.864;2022-07-15T04:56:31;100111.81;;;35.31;38.32
9853;BME280;4965;43.238;27.864;2022-07-15T04:58:58;100109.06;;;35.07;39.52
9853;BME280;4965;43.238;27.864;2022-07-15T05:01:25;100115.56;;;34.01;41.57
9853;BME280;4965;43.238;27.864;2022-07-15T05:03:53;100123.56;;;35.18;40.88
9853;BME280;4965;43.238;27.864;2022-07-15T05:06:20;100118.06;;;35.13;41.17
9853;BME280;4965;43.238;27.864;2022-07-15T05:08:46;100118.25;;;35.45;39.85
9853;BME280;4965;43.238;27.864;2022-07-15T05:11:13;100121.53;;;36.03;39.24
9853;BME280;4965;43.238;27.864;2022-07-15T05:13:40;100120.81;;;35.98;39.16
9853;BME280;4965;43.238;27.864;2022-07-15T05:16:07;100120.13;;;36.06;38.37
9853;BME280;4965;43.238;27.864;2022-07-15T05:18:34;100113.66;;;34.64;40.40
9853;BME280;4965;43.238;27.864;2022-07-15T05:21:03;100113.75;;;35.07;41.08
9853;BME280;4965;43.238;27.864;2022-07-15T05:23:29;100114.47;;;35.41;39.69
9853;BME280;4965;43.238;27.864;2022-07-15T05:25:56;100113.75;;;35.07;40.10
9853;BME280;4965;43.238;27.864;2022-07-15T05:28:23;100119.94;;;35.83;38.59
9853;BME280;4965;43.238;27.864;2022-07-15T05:30:50;100116.03;;;36.03;37.59
9853;BME280;4965;43.238;27.864;2022-07-15T05:33:17;100114.88;;;36.55;36.55
9853;BME280;4965;43.238;27.864;2022-07-15T05:35:44;100114.88;;;36.88;36.00
9853;BME280;4965;43.238;27.864;2022-07-15T05:38:12;100118.72;;;36.73;35.84
9853;BME280;4965;43.238;27.864;2022-07-15T05:40:39;100122.88;;;36.06;35.63
9853;BME280;4965;43.238;27.864;2022-07-15T05:43:06;100114.88;;;35.72;36.04
9853;BME280;4965;43.238;27.864;2022-07-15T05:45:32;100116.19;;;36.12;35.78
9853;BME280;4965;43.238;27.864;2022-07-15T05:47:59;100117.22;;;36.48;35.31
9853;BME280;4965;43.238;27.864;2022-07-15T05:50:26;100118.34;;;36.80;35.20
9853;BME280;4965;43.238;27.864;2022-07-15T05:52:53;100111.69;;;37.98;33.52
9853;BME280;4965;43.238;27.864;2022-07-15T05:55:21;100113.69;;;38.29;33.84
9853;BME280;4965;43.238;27.864;2022-07-15T05:57:49;100112.47;;;38.66;32.46
9853;BME280;4965;43.238;27.864;2022-07-15T06:00:16;100107.41;;;37.29;33.58
9853;BME280;4965;43.238;27.864;2022-07-15T06:02:43;100100.16;;;37.19;34.20
9853;BME280;4965;43.238;27.864;2022-07-15T06:05:10;100102.63;;;37.21;33.82
9853;BME280;4965;43.238;27.864;2022-07-15T06:07:37;100108.41;;;37.60;33.35
9853;BME280;4965;43.238;27.864;2022-07-15T06:10:06;100104.66;;;38.14;33.04
9853;BME280;4965;43.238;27.864;2022-07-15T06:12:35;100105.75;;;37.01;34.58
9853;BME280;4965;43.238;27.864;2022-07-15T06:15:02;100100.53;;;36.58;34.62
9853;BME280;4965;43.238;27.864;2022-07-15T06:17:29;100105.56;;;36.97;34.00
9853;BME280;4965;43.238;27.864;2022-07-15T06:19:56;100099.00;;;36.20;35.54
9853;BME280;4965;43.238;27.864;2022-07-15T06:22:23;100105.38;;;36.48;34.60
9853;BME280;4965;43.238;27.864;2022-07-15T06:24:50;100103.00;;;37.01;33.61
9853;BME280;4965;43.238;27.864;2022-07-15T06:27:17;100105.75;;;37.55;33.26
9853;BME280;4965;43.238;27.864;2022-07-15T06:29:45;100104.78;;;38.85;30.52
9853;BME280;4965;43.238;27.864;2022-07-15T06:32:12;100102.97;;;37.69;32.16
9853;BME280;4965;43.238;27.864;2022-07-15T06:34:39;100098.13;;;37.11;31.64
9853;BME280;4965;43.238;27.864;2022-07-15T06:37:06;100100.19;;;37.06;33.22
9853;BME280;4965;43.238;27.864;2022-07-15T06:39:32;100099.13;;;36.74;32.26
9853;BME280;4965;43.238;27.864;2022-07-15T06:41:59;100095.50;;;36.47;33.80
9853;BME280;4965;43.238;27.864;2022-07-15T06:44:26;100085.56;;;35.81;33.87
9853;BME280;4965;43.238;27.864;2022-07-15T06:46:55;100095.63;;;34.53;35.63
9853;BME280;4965;43.238;27.864;2022-07-15T06:49:22;100090.22;;;34.48;35.94
9853;BME280;4965;43.238;27.864;2022-07-15T06:51:48;100089.06;;;34.25;36.28
9853;BME280;4965;43.238;27.864;2022-07-15T06:54:15;100092.75;;;34.39;35.69
9853;BME280;4965;43.238;27.864;2022-07-15T06:56:44;100093.81;;;34.10;36.14
9853;BME280;4965;43.238;27.864;2022-07-15T06:59:11;100092.34;;;33.34;37.27
9853;BME280;4965;43.238;27.864;2022-07-15T07:01:37;100089.88;;;32.38;38.12
9853;BME280;4965;43.238;27.864;2022-07-15T07:04:06;100094.78;;;32.67;38.87
9853;BME280;4965;43.238;27.864;2022-07-15T07:06:33;100100.13;;;33.07;38.95
9853;BME280;4965;43.238;27.864;2022-07-15T07:09:00;100095.44;;;33.23;39.60
9853;BME280;4965;43.238;27.864;2022-07-15T07:11:27;100093.31;;;32.94;39.47
9853;BME280;4965;43.238;27.864;2022-07-15T07:13:54;100088.44;;;32.71;39.65
9853;BME280;4965;43.238;27.864;2022-07-15T07:16:22;100084.00;;;32.95;40.55
9853;BME280;4965;43.238;27.864;2022-07-15T07:18:49;100092.00;;;32.82;40.28
9853;BME280;4965;43.238;27.864;2022-07-15T07:21:18;100099.56;;;33.15;39.74
9853;BME280;4965;43.238;27.864;2022-07-15T07:23:46;100102.41;;;32.59;39.39
9853;BME280;4965;43.238;27.864;2022-07-15T07:26:14;100093.34;;;32.89;39.48
9853;BME280;4965;43.238;27.864;2022-07-15T07:28:41;100099.22;;;33.32;39.59
9853;BME280;4965;43.238;27.864;2022-07-15T07:31:09;100093.66;;;33.47;38.81
9853;BME280;4965;43.238;27.864;2022-07-15T07:33:36;100097.66;;;33.16;37.83
9853;BME280;4965;43.238;27.864;2022-07-15T07:36:05;100093.50;;;33.23;39.18
9853;BME280;4965;43.238;27.864;2022-07-15T07:38:34;100086.72;;;33.00;37.82
9853;BME280;4965;43.238;27.864;2022-07-15T07:41:01;100085.91;;;33.00;39.39
9853;BME280;4965;43.238;27.864;2022-07-15T07:43:29;100075.00;;;32.90;39.33
9853;BME280;4965;43.238;27.864;2022-07-15T07:45:58;100083.47;;;32.93;41.84
9853;BME280;4965;43.238;27.864;2022-07-15T07:48:25;100079.53;;;33.25;40.44
9853;BME280;4965;43.238;27.864;2022-07-15T07:50:52;100079.88;;;33.03;39.81
9853;BME280;4965;43.238;27.864;2022-07-15T07:53:19;100081.75;;;33.18;40.02
9853;BME280;4965;43.238;27.864;2022-07-15T07:55:48;100084.22;;;33.14;40.17
9853;BME280;4965;43.238;27.864;2022-07-15T07:58:15;100077.00;;;33.33;39.28
9853;BME280;4965;43.238;27.864;2022-07-15T08:00:43;100075.59;;;33.41;40.79
9853;BME280;4965;43.238;27.864;2022-07-15T08:03:11;100076.81;;;33.74;40.44
9853;BME280;4965;43.238;27.864;2022-07-15T08:05:38;100080.16;;;33.66;40.64
9853;BME280;4965;43.238;27.864;2022-07-15T08:08:10;100081.78;;;33.08;40.96
9853;BME280;4965;43.238;27.864;2022-07-15T08:10:38;100071.97;;;32.96;41.46
9853;BME280;4965;43.238;27.864;2022-07-15T08:13:06;100073.09;;;32.80;41.28
9853;BME280;4965;43.238;27.864;2022-07-15T08:15:33;100071.59;;;33.18;42.12
9853;BME280;4965;43.238;27.864;2022-07-15T08:18:00;100070.66;;;33.48;41.75
9853;BME280;4965;43.238;27.864;2022-07-15T08:20:28;100065.34;;;33.13;42.54
9853;BME280;4965;43.238;27.864;2022-07-15T08:22:55;100062.75;;;32.37;42.68
9853;BME280;4965;43.238;27.864;2022-07-15T08:25:25;100069.84;;;31.67;44.38
9853;BME280;4965;43.238;27.864;2022-07-15T08:27:53;100057.28;;;31.76;45.20
9853;BME280;4965;43.238;27.864;2022-07-15T08:30:21;100067.13;;;31.62;46.74
9853;BME280;4965;43.238;27.864;2022-07-15T08:32:48;100065.53;;;32.27;47.23
9853;BME280;4965;43.238;27.864;2022-07-15T08:35:15;100057.81;;;32.59;45.29
9853;BME280;4965;43.238;27.864;2022-07-15T08:37:42;100058.66;;;31.99;45.11
9853;BME280;4965;43.238;27.864;2022-07-15T08:40:10;100057.84;;;31.83;46.63
9853;BME280;4965;43.238;27.864;2022-07-15T08:42:38;100052.06;;;31.64;45.38
9853;BME280;4965;43.238;27.864;2022-07-15T08:45:09;100059.75;;;31.83;45.84
9853;BME280;4965;43.238;27.864;2022-07-15T08:47:41;100057.78;;;31.53;46.14
9853;BME280;4965;43.238;27.864;2022-07-15T08:50:11;100058.66;;;31.58;45.46
9853;BME280;4965;43.238;27.864;2022-07-15T08:52:38;100052.28;;;31.43;45.84
9853;BME280;4965;43.238;27.864;2022-07-15T08:55:06;100057.84;;;31.93;45.61
9853;BME280;4965;43.238;27.864;2022-07-15T08:57:34;100057.31;;;32.32;45.51
9853;BME280;4965;43.238;27.864;2022-07-15T09:00:03;100054.56;;;32.01;44.04
9853;BME280;4965;43.238;27.864;2022-07-15T09:02:32;100048.00;;;32.18;43.29
9853;BME280;4965;43.238;27.864;2022-07-15T09:05:25;100048.03;;;32.28;43.14
9853;BME280;4965;43.238;27.864;2022-07-15T09:07:55;100047.44;;;31.75;43.41
9853;BME280;4965;43.238;27.864;2022-07-15T09:10:23;100056.47;;;31.76;43.16
9853;BME280;4965;43.238;27.864;2022-07-15T09:12:52;100050.03;;;31.19;44.09
9853;BME280;4965;43.238;27.864;2022-07-15T09:15:30;100046.88;;;31.63;43.37
9853;BME280;4965;43.238;27.864;2022-07-15T09:18:06;100053.38;;;31.32;44.68
9853;BME280;4965;43.238;27.864;2022-07-15T09:20:35;100050.47;;;30.96;44.37
9853;BME280;4965;43.238;27.864;2022-07-15T09:23:02;100053.09;;;31.48;43.66
9853;BME280;4965;43.238;27.864;2022-07-15T09:25:30;100052.00;;;31.39;43.45
9853;BME280;4965;43.238;27.864;2022-07-15T09:28:00;100046.78;;;31.28;44.05
9853;BME280;4965;43.238;27.864;2022-07-15T09:30:30;100055.28;;;31.41;44.40
9853;BME280;4965;43.238;27.864;2022-07-15T09:33:16;100050.00;;;31.09;44.58
9853;BME280;4965;43.238;27.864;2022-07-15T09:36:12;100048.63;;;31.07;44.28
9853;BME280;4965;43.238;27.864;2022-07-15T09:38:42;100052.72;;;31.09;44.65
9853;BME280;4965;43.238;27.864;2022-07-15T09:41:11;100053.78;;;30.98;45.38
9853;BME280;4965;43.238;27.864;2022-07-15T09:43:46;100052.63;;;30.89;45.79
9853;BME280;4965;43.238;27.864;2022-07-15T09:46:15;100035.28;;;31.26;45.36
9853;BME280;4965;43.238;27.864;2022-07-15T09:48:43;100046.88;;;30.91;45.57
9853;BME280;4965;43.238;27.864;2022-07-15T09:51:12;100047.47;;;30.98;46.22
9853;BME280;4965;43.238;27.864;2022-07-15T09:53:39;100048.53;;;30.92;47.78
9853;BME280;4965;43.238;27.864;2022-07-15T09:56:08;100057.25;;;30.89;51.00
9853;BME280;4965;43.238;27.864;2022-07-15T09:58:41;100037.69;;;30.55;51.19
9853;BME280;4965;43.238;27.864;2022-07-15T10:01:10;100032.81;;;30.57;54.46
9853;BME280;4965;43.238;27.864;2022-07-15T10:03:38;100042.72;;;30.36;55.55
9853;BME280;4965;43.238;27.864;2022-07-15T10:06:05;100029.81;;;30.21;56.00
9853;BME280;4965;43.238;27.864;2022-07-15T10:08:34;100034.34;;;30.06;53.01
9853;BME280;4965;43.238;27.864;2022-07-15T10:11:07;100036.03;;;30.12;51.35
9853;BME280;4965;43.238;27.864;2022-07-15T10:13:48;100038.28;;;29.88;52.57
9853;BME280;4965;43.238;27.864;2022-07-15T10:16:32;100037.13;;;29.84;55.38
9853;BME280;4965;43.238;27.864;2022-07-15T10:19:09;100036.75;;;30.02;58.36
9853;BME280;4965;43.238;27.864;2022-07-15T10:21:41;100035.28;;;29.90;59.39
9853;BME280;4965;43.238;27.864;2022-07-15T10:24:37;100028.09;;;29.52;63.80
9853;BME280;4965;43.238;27.864;2022-07-15T10:27:27;100043.75;;;29.93;62.70
9853;BME280;4965;43.238;27.864;2022-07-15T10:30:03;100026.94;;;29.74;65.77
9853;BME280;4965;43.238;27.864;2022-07-15T10:33:06;100029.03;;;29.36;71.15
9853;BME280;4965;43.238;27.864;2022-07-15T10:35:35;100033.19;;;29.43;60.77
9853;BME280;4965;43.238;27.864;2022-07-15T10:38:26;100028.88;;;29.47;59.39
9853;BME280;4965;43.238;27.864;2022-07-15T10:40:59;100026.25;;;29.57;59.66
9853;BME280;4965;43.238;27.864;2022-07-15T10:43:46;100038.47;;;29.55;60.44
9853;BME280;4965;43.238;27.864;2022-07-15T10:46:25;100019.34;;;29.23;61.77
9853;BME280;4965;43.238;27.864;2022-07-15T10:52:14;100023.09;;;28.95;61.66
9853;BME280;4965;43.238;27.864;2022-07-15T10:54:49;100013.84;;;29.18;63.14
9853;BME280;4965;43.238;27.864;2022-07-15T10:57:18;100020.91;;;28.92;69.36
9853;BME280;4965;43.238;27.864;2022-07-15T10:59:56;100017.03;;;28.88;71.61
9853;BME280;4965;43.238;27.864;2022-07-15T11:02:24;100016.00;;;28.94;58.35
9853;BME280;4965;43.238;27.864;2022-07-15T11:04:54;100028.09;;;29.03;67.49
9853;BME280;4965;43.238;27.864;2022-07-15T11:07:40;100012.25;;;29.00;66.96
9853;BME280;4965;43.238;27.864;2022-07-15T11:10:17;100007.16;;;28.82;71.08
9853;BME280;4965;43.238;27.864;2022-07-15T11:13:01;100008.59;;;28.68;69.98
9853;BME280;4965;43.238;27.864;2022-07-15T11:15:28;100001.41;;;28.78;77.72
9853;BME280;4965;43.238;27.864;2022-07-15T11:17:56;100011.44;;;28.39;73.48
9853;BME280;4965;43.238;27.864;2022-07-15T11:20:26;100013.88;;;28.58;81.50
9853;BME280;4965;43.238;27.864;2022-07-15T11:22:55;100016.59;;;28.58;77.35
9853;BME280;4965;43.238;27.864;2022-07-15T11:25:24;100021.38;;;28.51;78.61
9853;BME280;4965;43.238;27.864;2022-07-15T11:28:10;100008.31;;;28.48;81.46
9853;BME280;4965;43.238;27.864;2022-07-15T11:30:39;100007.34;;;28.59;78.49
9853;BME280;4965;43.238;27.864;2022-07-15T11:33:08;100007.34;;;28.59;82.53
9853;BME280;4965;43.238;27.864;2022-07-15T11:35:46;100011.31;;;28.13;79.74
9853;BME280;4965;43.238;27.864;2022-07-15T11:38:15;100013.22;;;28.12;83.84
9853;BME280;4965;43.238;27.864;2022-07-15T11:40:43;100016.31;;;28.04;73.93
9853;BME280;4965;43.238;27.864;2022-07-15T11:43:29;100002.34;;;28.12;81.28
9853;BME280;4965;43.238;27.864;2022-07-15T11:46:13;100008.09;;;28.32;74.49
9853;BME280;4965;43.238;27.864;2022-07-15T11:48:40;100004.81;;;28.30;74.45
9853;BME280;4965;43.238;27.864;2022-07-15T11:51:08;99999.53;;;28.07;74.17
9853;BME280;4965;43.238;27.864;2022-07-15T11:53:37;99996.59;;;28.09;76.38
9853;BME280;4965;43.238;27.864;2022-07-15T11:56:07;100001.16;;;28.42;76.96
9853;BME280;4965;43.238;27.864;2022-07-15T11:58:37;99998.75;;;28.67;71.43
9853;BME280;4965;43.238;27.864;2022-07-15T12:01:06;99994.28;;;28.17;69.12
9853;BME280;4965;43.238;27.864;2022-07-15T12:03:39;99990.31;;;28.25;68.32
9853;BME280;4965;43.238;27.864;2022-07-15T12:06:09;100001.03;;;28.15;74.64
9853;BME280;4965;43.238;27.864;2022-07-15T12:08:39;99997.56;;;27.86;67.19
9853;BME280;4965;43.238;27.864;2022-07-15T12:11:13;99987.94;;;28.12;67.37
9853;BME280;4965;43.238;27.864;2022-07-15T12:13:45;99991.63;;;28.22;65.02
9853;BME280;4965;43.238;27.864;2022-07-15T12:16:13;99990.81;;;28.22;66.64
9853;BME280;4965;43.238;27.864;2022-07-15T12:18:40;99991.25;;;28.35;69.07
9853;BME280;4965;43.238;27.864;2022-07-15T12:21:08;99997.00;;;28.17;68.06
9853;BME280;4965;43.238;27.864;2022-07-15T12:23:35;100001.06;;;28.36;71.32
9853;BME280;4965;43.238;27.864;2022-07-15T12:26:07;99993.69;;;28.15;72.09
9853;BME280;4965;43.238;27.864;2022-07-15T12:28:34;99984.38;;;28.28;72.47
9853;BME280;4965;43.238;27.864;2022-07-15T12:31:04;99993.38;;;28.50;73.92
9853;BME280;4965;43.238;27.864;2022-07-15T12:33:34;99982.47;;;28.28;78.34
9853;BME280;4965;43.238;27.864;2022-07-15T12:36:19;99983.47;;;27.89;85.64
9853;BME280;4965;43.238;27.864;2022-07-15T12:39:02;99981.44;;;28.13;87.00
9853;BME280;4965;43.238;27.864;2022-07-15T12:41:30;99992.13;;;28.03;80.87
9853;BME280;4965;43.238;27.864;2022-07-15T12:43:59;99975.25;;;27.84;77.77
9853;BME280;4965;43.238;27.864;2022-07-15T12:46:51;99981.50;;;27.84;78.37
9853;BME280;4965;43.238;27.864;2022-07-15T12:49:51;99986.84;;;27.63;84.97
9853;BME280;4965;43.238;27.864;2022-07-15T12:52:24;99975.16;;;27.62;87.40
9853;BME280;4965;43.238;27.864;2022-07-15T12:54:53;99975.50;;;27.82;86.22
9853;BME280;4965;43.238;27.864;2022-07-15T12:57:31;99982.16;;;28.08;80.27
9853;BME280;4965;43.238;27.864;2022-07-15T13:00:03;99979.69;;;28.07;78.74
9853;BME280;4965;43.238;27.864;2022-07-15T13:03:01;99979.59;;;28.02;70.81
9853;BME280;4965;43.238;27.864;2022-07-15T13:05:30;99989.16;;;27.71;80.77
9853;BME280;4965;43.238;27.864;2022-07-15T13:07:58;99980.84;;;27.61;81.87
9853;BME280;4965;43.238;27.864;2022-07-15T13:10:27;99983.00;;;27.92;80.94
9853;BME280;4965;43.238;27.864;2022-07-15T13:12:54;99980.94;;;27.82;76.78